sensor_id;sensor_type;location;lat;lon;timestamp;pressure;altitude;pressure_sealevel;temperature;humidity
58769;BME280;44536;47.474;19.056;2023-03-12T00:02:23;99918.94;;;1.05;67.10
58769;BME280;44536;47.474;19.056;2023-03-12T00:05:26;99919.66;;;1.08;66.75
58769;BME280;44536;47.474;19.056;2023-03-12T00:08:28;99936.59;;;0.99;67.10
58769;BME280;44536;47.474;19.056;2023-03-12T00:11:30;99937.66;;;0.95;67.03
58769;BME280;44536;47.474;19.056;2023-03-12T00:14:33;99941.81;;;0.99;67.23
58769;BME280;44536;47.474;19.056;2023-03-12T00:17:35;99934.19;;;0.95;67.22
58769;BME280;44536;47.474;19.056;2023-03-12T00:20:37;99938.38;;;0.99;66.94
58769;BME280;44536;47.474;19.056;2023-03-12T00:23:40;99939.47;;;0.93;66.07
58769;BME280;44536;47.474;19.056;2023-03-12T00:26:42;99947.03;;;0.99;64.77
58769;BME280;44536;47.474;19.056;2023-03-12T00:29:45;99957.63;;;0.96;64.80
58769;BME280;44536;47.474;19.056;2023-03-12T00:32:47;99964.72;;;0.93;65.15
58769;BME280;44536;47.474;19.056;2023-03-12T00:35:50;99962.72;;;0.99;64.41
58769;BME280;44536;47.474;19.056;2023-03-12T00:38:53;99980.47;;;0.91;64.19
58769;BME280;44536;47.474;19.056;2023-03-12T00:41:56;99982.16;;;0.92;63.68
58769;BME280;44536;47.474;19.056;2023-03-12T00:44:58;99987.56;;;0.88;63.71
58769;BME280;44536;47.474;19.056;2023-03-12T00:48:01;99991.34;;;0.81;64.04
58769;BME280;44536;47.474;19.056;2023-03-12T00:51:03;99988.59;;;0.84;63.11
58769;BME280;44536;47.474;19.056;2023-03-12T00:54:06;99986.28;;;0.98;61.77
58769;BME280;44536;47.474;19.056;2023-03-12T00:57:08;99979.41;;;0.95;61.36
58769;BME280;44536;47.474;19.056;2023-03-12T01:00:11;99989.06;;;0.93;61.68
58769;BME280;44536;47.474;19.056;2023-03-12T01:03:14;99983.78;;;0.95;62.36
58769;BME280;44536;47.474;19.056;2023-03-12T01:06:17;99994.03;;;0.99;60.39
58769;BME280;44536;47.474;19.056;2023-03-12T01:09:19;99987.47;;;1.10;59.75
58769;BME280;44536;47.474;19.056;2023-03-12T01:12:22;99999.13;;;1.03;60.39
58769;BME280;44536;47.474;19.056;2023-03-12T01:15:24;100002.78;;;0.98;60.79
58769;BME280;44536;47.474;19.056;2023-03-12T01:18:27;99998.72;;;0.91;61.12
58769;BME280;44536;47.474;19.056;2023-03-12T01:21:29;100002.06;;;0.95;61.17
58769;BME280;44536;47.474;19.056;2023-03-12T01:24:32;99997.69;;;0.95;60.60
58769;BME280;44536;47.474;19.056;2023-03-12T01:27:34;100002.06;;;0.95;60.08
58769;BME280;44536;47.474;19.056;2023-03-12T01:30:37;100008.62;;;0.83;60.30
58769;BME280;44536;47.474;19.056;2023-03-12T01:33:39;100012.47;;;0.75;62.03
58769;BME280;44536;47.474;19.056;2023-03-12T01:36:42;100018.53;;;0.75;60.99
58769;BME280;44536;47.474;19.056;2023-03-12T01:39:46;100010.78;;;0.74;61.09
58769;BME280;44536;47.474;19.056;2023-03-12T01:42:55;100012.66;;;0.70;61.89
58769;BME280;44536;47.474;19.056;2023-03-12T01:52:22;100023.81;;;0.74;60.94
58769;BME280;44536;47.474;19.056;2023-03-12T01:55:26;100020.63;;;0.67;60.72
58769;BME280;44536;47.474;19.056;2023-03-12T01:58:30;100019.94;;;0.62;62.33
58769;BME280;44536;47.474;19.056;2023-03-12T02:01:36;100025.41;;;0.56;62.18
58769;BME280;44536;47.474;19.056;2023-03-12T02:04:39;100036.06;;;0.51;62.35
58769;BME280;44536;47.474;19.056;2023-03-12T02:07:45;100046.41;;;0.53;62.35
58769;BME280;44536;47.474;19.056;2023-03-12T02:10:48;100055.84;;;0.35;63.79
58769;BME280;44536;47.474;19.056;2023-03-12T02:13:50;100054.06;;;0.36;63.10
58769;BME280;44536;47.474;19.056;2023-03-12T02:16:54;100061.47;;;0.24;63.47
58769;BME280;44536;47.474;19.056;2023-03-12T02:23:14;100063.50;;;0.16;64.68
58769;BME280;44536;47.474;19.056;2023-03-12T02:26:18;100061.47;;;0.24;63.72
58769;BME280;44536;47.474;19.056;2023-03-12T02:29:24;100062.22;;;0.05;65.46
58769;BME280;44536;47.474;19.056;2023-03-12T02:32:32;100065.19;;;-0.05;66.00
58769;BME280;44536;47.474;19.056;2023-03-12T02:35:37;100076.84;;;0.09;64.70
58769;BME280;44536;47.474;19.056;2023-03-12T02:38:42;100083.34;;;0.20;64.47
58769;BME280;44536;47.474;19.056;2023-03-12T02:41:54;100085.28;;;0.15;64.81
58769;BME280;44536;47.474;19.056;2023-03-12T02:44:59;100090.88;;;0.05;65.83
58769;BME280;44536;47.474;19.056;2023-03-12T02:48:02;100097.44;;;-0.07;67.20
58769;BME280;44536;47.474;19.056;2023-03-12T02:51:04;100103.78;;;-0.14;68.33
58769;BME280;44536;47.474;19.056;2023-03-12T02:54:08;100099.53;;;-0.17;68.49
58769;BME280;44536;47.474;19.056;2023-03-12T02:57:10;100097.50;;;-0.34;70.06
58769;BME280;44536;47.474;19.056;2023-03-12T03:00:14;100096.72;;;-0.36;70.71
58769;BME280;44536;47.474;19.056;2023-03-12T03:03:17;100099.59;;;-0.43;71.66
58769;BME280;44536;47.474;19.056;2023-03-12T03:06:20;100109.84;;;-0.39;71.81
58769;BME280;44536;47.474;19.056;2023-03-12T03:09:23;100110.97;;;-0.46;72.45
58769;BME280;44536;47.474;19.056;2023-03-12T03:12:26;100118.03;;;-0.49;73.54
58769;BME280;44536;47.474;19.056;2023-03-12T03:15:29;100120.78;;;-0.52;74.15
58769;BME280;44536;47.474;19.056;2023-03-12T03:18:32;100126.69;;;-0.49;73.40
58769;BME280;44536;47.474;19.056;2023-03-12T03:21:34;100127.59;;;-0.50;74.03
58769;BME280;44536;47.474;19.056;2023-03-12T03:24:37;100138.31;;;-0.57;74.35
58769;BME280;44536;47.474;19.056;2023-03-12T03:27:39;100151.38;;;-0.59;75.05
58769;BME280;44536;47.474;19.056;2023-03-12T03:30:41;100143.41;;;-0.54;74.79
58769;BME280;44536;47.474;19.056;2023-03-12T03:33:44;100151.38;;;-0.59;75.77
58769;BME280;44536;47.474;19.056;2023-03-12T03:36:47;100159.25;;;-0.60;75.42
58769;BME280;44536;47.474;19.056;2023-03-12T03:39:50;100168.41;;;-0.75;75.82
58769;BME280;44536;47.474;19.056;2023-03-12T03:42:52;100169.50;;;-0.82;76.55
58769;BME280;44536;47.474;19.056;2023-03-12T03:45:59;100173.84;;;-0.83;76.95
58769;BME280;44536;47.474;19.056;2023-03-12T03:49:04;100168.00;;;-0.89;76.91
58769;BME280;44536;47.474;19.056;2023-03-12T03:52:07;100173.06;;;-0.85;76.15
58769;BME280;44536;47.474;19.056;2023-03-12T03:55:10;100174.59;;;-0.79;76.44
58769;BME280;44536;47.474;19.056;2023-03-12T03:58:13;100174.75;;;-0.84;76.11
58769;BME280;44536;47.474;19.056;2023-03-12T04:01:17;100166.75;;;-0.78;75.65
58769;BME280;44536;47.474;19.056;2023-03-12T04:04:21;100169.25;;;-0.75;75.98
58769;BME280;44536;47.474;19.056;2023-03-12T04:07:25;100178.88;;;-0.77;75.31
58769;BME280;44536;47.474;19.056;2023-03-12T04:10:28;100184.28;;;-0.83;76.25
58769;BME280;44536;47.474;19.056;2023-03-12T04:13:30;100192.87;;;-0.81;75.93
58769;BME280;44536;47.474;19.056;2023-03-12T04:16:33;100185.63;;;-0.71;75.69
58769;BME280;44536;47.474;19.056;2023-03-12T04:19:35;100188.44;;;-0.77;76.62
58769;BME280;44536;47.474;19.056;2023-03-12T04:22:38;100205.25;;;-0.87;77.25
58769;BME280;44536;47.474;19.056;2023-03-12T04:25:41;100206.50;;;-0.73;76.57
58769;BME280;44536;47.474;19.056;2023-03-12T04:28:44;100216.06;;;-0.73;77.17
58769;BME280;44536;47.474;19.056;2023-03-12T04:31:46;100223.97;;;-0.76;77.37
58769;BME280;44536;47.474;19.056;2023-03-12T04:34:50;100241.09;;;-0.69;77.02
58769;BME280;44536;47.474;19.056;2023-03-12T04:37:53;100250.63;;;-0.68;77.00
58769;BME280;44536;47.474;19.056;2023-03-12T04:44:04;100257.53;;;-0.67;77.13
58769;BME280;44536;47.474;19.056;2023-03-12T04:47:07;100259.28;;;-0.68;77.41
58769;BME280;44536;47.474;19.056;2023-03-12T04:50:10;100263.13;;;-0.79;77.66
58769;BME280;44536;47.474;19.056;2023-03-12T04:53:14;100265.09;;;-0.59;76.53
58769;BME280;44536;47.474;19.056;2023-03-12T04:56:16;100253.75;;;-0.57;76.73
58769;BME280;44536;47.474;19.056;2023-03-12T04:59:20;100266.81;;;-0.58;77.59
58769;BME280;44536;47.474;19.056;2023-03-12T05:02:22;100267.91;;;-0.65;78.28
58769;BME280;44536;47.474;19.056;2023-03-12T05:05:25;100275.53;;;-0.59;78.28
58769;BME280;44536;47.474;19.056;2023-03-12T05:08:27;100286.03;;;-0.62;79.20
58769;BME280;44536;47.474;19.056;2023-03-12T05:11:30;100292.00;;;-0.59;79.33
58769;BME280;44536;47.474;19.056;2023-03-12T05:14:32;100281.78;;;-0.65;79.63
58769;BME280;44536;47.474;19.056;2023-03-12T05:17:35;100285.13;;;-0.61;79.95
58769;BME280;44536;47.474;19.056;2023-03-12T05:20:38;100284.28;;;-0.62;79.87
58769;BME280;44536;47.474;19.056;2023-03-12T05:23:42;100291.09;;;-0.58;79.87
58769;BME280;44536;47.474;19.056;2023-03-12T05:26:45;100290.88;;;-0.52;79.58
58769;BME280;44536;47.474;19.056;2023-03-12T05:29:48;100292.47;;;-0.48;79.51
58769;BME280;44536;47.474;19.056;2023-03-12T05:32:50;100305.47;;;-0.46;79.37
58769;BME280;44536;47.474;19.056;2023-03-12T05:35:54;100311.31;;;-0.40;78.46
58769;BME280;44536;47.474;19.056;2023-03-12T05:38:56;100325.66;;;-0.26;78.63
58769;BME280;44536;47.474;19.056;2023-03-12T05:41:59;100325.66;;;-0.26;78.72
58769;BME280;44536;47.474;19.056;2023-03-12T05:45:03;100324.06;;;-0.04;77.77
58769;BME280;44536;47.474;19.056;2023-03-12T05:48:06;100325.78;;;0.95;73.28
58769;BME280;44536;47.474;19.056;2023-03-12T05:51:09;100323.97;;;1.84;69.15
58769;BME280;44536;47.474;19.056;2023-03-12T05:54:13;100323.62;;;2.54;65.97
58769;BME280;44536;47.474;19.056;2023-03-12T05:57:16;100342.91;;;2.91;62.95
58769;BME280;44536;47.474;19.056;2023-03-12T06:00:19;100344.34;;;3.17;61.81
58769;BME280;44536;47.474;19.056;2023-03-12T06:03:22;100350.69;;;3.67;60.04
58769;BME280;44536;47.474;19.056;2023-03-12T06:06:25;100354.38;;;5.02;56.02
58769;BME280;44536;47.474;19.056;2023-03-12T06:09:27;100364.12;;;6.40;50.79
58769;BME280;44536;47.474;19.056;2023-03-12T06:12:30;100364.88;;;6.72;49.46
58769;BME280;44536;47.474;19.056;2023-03-12T06:15:32;100376.09;;;7.18;48.28
58769;BME280;44536;47.474;19.056;2023-03-12T06:18:36;100367.50;;;8.88;44.25
58769;BME280;44536;47.474;19.056;2023-03-12T06:21:41;100380.41;;;9.68;41.92
58769;BME280;44536;47.474;19.056;2023-03-12T06:24:44;100387.16;;;8.84;42.20
58769;BME280;44536;47.474;19.056;2023-03-12T06:27:49;100397.44;;;7.56;45.14
58769;BME280;44536;47.474;19.056;2023-03-12T06:30:54;100399.19;;;8.50;44.44
58769;BME280;44536;47.474;19.056;2023-03-12T06:33:57;100398.34;;;10.24;40.03
58769;BME280;44536;47.474;19.056;2023-03-12T06:36:59;100393.69;;;11.97;37.02
58769;BME280;44536;47.474;19.056;2023-03-12T06:40:02;100398.31;;;13.71;32.42
58769;BME280;44536;47.474;19.056;2023-03-12T06:43:05;100399.19;;;12.90;33.94
58769;BME280;44536;47.474;19.056;2023-03-12T06:46:16;100408.41;;;13.28;33.04
58769;BME280;44536;47.474;19.056;2023-03-12T06:49:18;100404.19;;;13.25;32.77
58769;BME280;44536;47.474;19.056;2023-03-12T06:52:21;100416.87;;;11.06;36.60
58769;BME280;44536;47.474;19.056;2023-03-12T06:55:23;100423.37;;;9.35;39.31
58769;BME280;44536;47.474;19.056;2023-03-12T06:58:25;100424.31;;;8.70;40.98
58769;BME280;44536;47.474;19.056;2023-03-12T07:01:27;100416.00;;;7.54;42.94
58769;BME280;44536;47.474;19.056;2023-03-12T07:04:30;100436.25;;;6.37;45.21
58769;BME280;44536;47.474;19.056;2023-03-12T07:07:32;100442.16;;;5.15;48.43
58769;BME280;44536;47.474;19.056;2023-03-12T07:10:34;100436.38;;;5.88;47.40
58769;BME280;44536;47.474;19.056;2023-03-12T07:13:37;100440.75;;;6.05;47.21
58769;BME280;44536;47.474;19.056;2023-03-12T07:16:39;100445.38;;;7.06;45.06
58769;BME280;44536;47.474;19.056;2023-03-12T07:19:41;100450.25;;;6.23;46.99
58769;BME280;44536;47.474;19.056;2023-03-12T07:22:44;100454.31;;;5.00;49.98
58769;BME280;44536;47.474;19.056;2023-03-12T07:25:46;100460.69;;;4.25;52.12
58769;BME280;44536;47.474;19.056;2023-03-12T07:28:49;100464.59;;;3.62;54.17
58769;BME280;44536;47.474;19.056;2023-03-12T07:31:51;100470.63;;;3.25;54.50
58769;BME280;44536;47.474;19.056;2023-03-12T07:34:53;100471.81;;;3.18;56.09
58769;BME280;44536;47.474;19.056;2023-03-12T07:37:57;100473.56;;;2.98;55.70
58769;BME280;44536;47.474;19.056;2023-03-12T07:40:59;100476.63;;;2.88;55.64
58769;BME280;44536;47.474;19.056;2023-03-12T07:44:02;100491.34;;;2.90;56.61
58769;BME280;44536;47.474;19.056;2023-03-12T07:47:05;100493.56;;;2.79;57.75
58769;BME280;44536;47.474;19.056;2023-03-12T07:50:23;100492.53;;;2.83;56.49
58769;BME280;44536;47.474;19.056;2023-03-12T07:53:26;100485.13;;;2.93;58.21
58769;BME280;44536;47.474;19.056;2023-03-12T07:56:28;100482.97;;;3.03;56.39
58769;BME280;44536;47.474;19.056;2023-03-12T07:59:31;100483.75;;;2.84;56.83
58769;BME280;44536;47.474;19.056;2023-03-12T08:02:34;100491.75;;;3.02;57.28
58769;BME280;44536;47.474;19.056;2023-03-12T08:05:37;100493.47;;;3.03;56.51
58769;BME280;44536;47.474;19.056;2023-03-12T08:08:39;100493.97;;;2.90;56.17
58769;BME280;44536;47.474;19.056;2023-03-12T08:11:43;100497.91;;;3.01;56.74
58769;BME280;44536;47.474;19.056;2023-03-12T08:14:45;100501.50;;;2.78;55.48
58769;BME280;44536;47.474;19.056;2023-03-12T08:17:49;100498.41;;;2.88;54.26
58769;BME280;44536;47.474;19.056;2023-03-12T08:20:52;100503.41;;;2.94;55.04
58769;BME280;44536;47.474;19.056;2023-03-12T08:23:55;100501.56;;;2.96;54.47
58769;BME280;44536;47.474;19.056;2023-03-12T08:26:57;100507.13;;;2.89;52.62
58769;BME280;44536;47.474;19.056;2023-03-12T08:29:59;100511.22;;;2.74;52.68
58769;BME280;44536;47.474;19.056;2023-03-12T08:33:02;100509.78;;;2.67;54.62
58769;BME280;44536;47.474;19.056;2023-03-12T08:36:04;100511.44;;;2.90;53.62
58769;BME280;44536;47.474;19.056;2023-03-12T08:39:07;100518.94;;;2.99;54.18
58769;BME280;44536;47.474;19.056;2023-03-12T08:42:09;100515.69;;;3.13;51.98
58769;BME280;44536;47.474;19.056;2023-03-12T08:45:12;100528.69;;;2.95;51.88
58769;BME280;44536;47.474;19.056;2023-03-12T08:48:15;100511.09;;;2.77;52.25
58769;BME280;44536;47.474;19.056;2023-03-12T08:51:17;100520.31;;;3.08;53.36
58769;BME280;44536;47.474;19.056;2023-03-12T08:54:20;100518.81;;;3.02;52.15
58769;BME280;44536;47.474;19.056;2023-03-12T08:57:22;100512.81;;;3.19;52.58
58769;BME280;44536;47.474;19.056;2023-03-12T09:00:25;100517.25;;;3.17;52.71
58769;BME280;44536;47.474;19.056;2023-03-12T09:03:27;100511.66;;;3.06;52.75
58769;BME280;44536;47.474;19.056;2023-03-12T09:06:30;100514.09;;;3.10;52.36
58769;BME280;44536;47.474;19.056;2023-03-12T09:09:32;100508.09;;;3.27;51.54
58769;BME280;44536;47.474;19.056;2023-03-12T09:12:35;100507.75;;;3.35;49.97
58769;BME280;44536;47.474;19.056;2023-03-12T09:15:37;100504.47;;;3.50;51.03
58769;BME280;44536;47.474;19.056;2023-03-12T09:18:39;100510.88;;;3.82;51.16
58769;BME280;44536;47.474;19.056;2023-03-12T09:21:42;100508.03;;;3.86;50.91
58769;BME280;44536;47.474;19.056;2023-03-12T09:24:44;100512.34;;;3.87;51.09
58769;BME280;44536;47.474;19.056;2023-03-12T09:27:47;100508.09;;;4.04;52.63
58769;BME280;44536;47.474;19.056;2023-03-12T09:30:50;100495.06;;;4.38;49.77
58769;BME280;44536;47.474;19.056;2023-03-12T09:33:52;100503.25;;;4.32;49.03
58769;BME280;44536;47.474;19.056;2023-03-12T09:36:55;100497.19;;;4.13;49.80
58769;BME280;44536;47.474;19.056;2023-03-12T09:39:57;100502.66;;;4.44;48.17
58769;BME280;44536;47.474;19.056;2023-03-12T09:43:03;100506.00;;;4.65;47.56
58769;BME280;44536;47.474;19.056;2023-03-12T09:46:14;100505.16;;;4.64;46.78
58769;BME280;44536;47.474;19.056;2023-03-12T09:49:31;100507.31;;;4.74;46.73
58769;BME280;44536;47.474;19.056;2023-03-12T09:52:43;100496.34;;;5.17;45.71
58769;BME280;44536;47.474;19.056;2023-03-12T09:55:50;100496.44;;;5.49;44.62
58769;BME280;44536;47.474;19.056;2023-03-12T09:58:53;100489.91;;;6.66;41.81
58769;BME280;44536;47.474;19.056;2023-03-12T10:01:59;100495.41;;;7.92;39.11
58769;BME280;44536;47.474;19.056;2023-03-12T10:05:07;100481.13;;;9.53;37.35
58769;BME280;44536;47.474;19.056;2023-03-12T10:21:46;100493.81;;;9.86;35.87
58769;BME280;44536;47.474;19.056;2023-03-12T10:28:09;100491.09;;;10.12;34.19
58769;BME280;44536;47.474;19.056;2023-03-12T10:31:24;100496.34;;;11.76;31.62
58769;BME280;44536;47.474;19.056;2023-03-12T10:34:33;100494.13;;;10.79;32.03
58769;BME280;44536;47.474;19.056;2023-03-12T10:37:43;100489.75;;;9.93;33.09
58769;BME280;44536;47.474;19.056;2023-03-12T10:40:46;100499.97;;;9.74;34.00
58769;BME280;44536;47.474;19.056;2023-03-12T10:43:49;100498.47;;;10.80;32.63
58769;BME280;44536;47.474;19.056;2023-03-12T10:47:05;100496.91;;;10.53;33.29
58769;BME280;44536;47.474;19.056;2023-03-12T10:53:31;100501.13;;;10.80;31.82
58769;BME280;44536;47.474;19.056;2023-03-12T10:56:48;100504.41;;;9.86;33.62
58769;BME280;44536;47.474;19.056;2023-03-12T11:00:05;100504.06;;;9.91;34.24
58769;BME280;44536;47.474;19.056;2023-03-12T11:03:28;100505.16;;;9.76;31.20
58769;BME280;44536;47.474;19.056;2023-03-12T11:06:31;100505.34;;;10.58;29.67
58769;BME280;44536;47.474;19.056;2023-03-12T11:09:33;100503.28;;;11.21;28.78
58769;BME280;44536;47.474;19.056;2023-03-12T11:12:37;100503.47;;;12.09;26.80
58769;BME280;44536;47.474;19.056;2023-03-12T11:15:42;100493.69;;;11.98;23.81
58769;BME280;44536;47.474;19.056;2023-03-12T11:18:55;100492.31;;;13.22;23.95
58769;BME280;44536;47.474;19.056;2023-03-12T11:22:00;100488.47;;;14.06;21.85
58769;BME280;44536;47.474;19.056;2023-03-12T11:25:05;100494.09;;;15.77;20.24
58769;BME280;44536;47.474;19.056;2023-03-12T11:28:16;100487.28;;;15.36;19.72
58769;BME280;44536;47.474;19.056;2023-03-12T11:31:33;100486.75;;;16.34;19.12
58769;BME280;44536;47.474;19.056;2023-03-12T11:34:39;100480.03;;;16.47;17.47
58769;BME280;44536;47.474;19.056;2023-03-12T11:38:19;100480.81;;;16.75;17.58
58769;BME280;44536;47.474;19.056;2023-03-12T11:41:36;100488.69;;;17.38;18.87
58769;BME280;44536;47.474;19.056;2023-03-12T11:45:05;100478.91;;;17.29;18.02
58769;BME280;44536;47.474;19.056;2023-03-12T11:48:22;100476.88;;;20.58;15.42
58769;BME280;44536;47.474;19.056;2023-03-12T12:07:53;100469.19;;;20.15;14.28
58769;BME280;44536;47.474;19.056;2023-03-12T12:14:21;100460.06;;;18.73;14.86
58769;BME280;44536;47.474;19.056;2023-03-12T12:27:25;100448.75;;;20.60;12.68
58769;BME280;44536;47.474;19.056;2023-03-12T12:41:13;100451.19;;;19.77;13.60
58769;BME280;44536;47.474;19.056;2023-03-12T12:44:22;100443.47;;;20.13;12.94
58769;BME280;44536;47.474;19.056;2023-03-12T12:47:43;100450.97;;;20.57;13.41
58769;BME280;44536;47.474;19.056;2023-03-12T12:50:50;100457.44;;;20.08;13.82
58769;BME280;44536;47.474;19.056;2023-03-12T12:53:55;100451.72;;;18.26;14.80
58769;BME280;44536;47.474;19.056;2023-03-12T12:57:30;100449.31;;;19.14;13.80
58769;BME280;44536;47.474;19.056;2023-03-12T13:03:48;100456.97;;;18.44;14.19
58769;BME280;44536;47.474;19.056;2023-03-12T13:10:06;100449.66;;;19.03;13.79
58769;BME280;44536;47.474;19.056;2023-03-12T13:13:20;100441.84;;;19.65;13.49
58769;BME280;44536;47.474;19.056;2023-03-12T13:16:32;100447.78;;;16.49;14.58
58769;BME280;44536;47.474;19.056;2023-03-12T13:19:38;100448.16;;;16.54;15.15
58769;BME280;44536;47.474;19.056;2023-03-12T13:26:35;100441.00;;;16.09;15.70
58769;BME280;44536;47.474;19.056;2023-03-12T13:29:42;100447.00;;;17.44;15.30
58769;BME280;44536;47.474;19.056;2023-03-12T13:36:09;100453.56;;;15.25;16.96
58769;BME280;44536;47.474;19.056;2023-03-12T13:39:27;100454.56;;;15.24;16.69
58769;BME280;44536;47.474;19.056;2023-03-12T13:42:37;100462.16;;;16.03;16.17
58769;BME280;44536;47.474;19.056;2023-03-12T13:48:48;100466.75;;;16.91;15.34
58769;BME280;44536;47.474;19.056;2023-03-12T13:52:17;100462.09;;;16.12;16.65
58769;BME280;44536;47.474;19.056;2023-03-12T13:55:48;100464.88;;;16.38;16.89
58769;BME280;44536;47.474;19.056;2023-03-12T13:59:05;100454.16;;;16.20;16.26
58769;BME280;44536;47.474;19.056;2023-03-12T14:02:20;100460.53;;;15.92;16.39
58769;BME280;44536;47.474;19.056;2023-03-12T14:05:26;100462.22;;;14.51;17.88
58769;BME280;44536;47.474;19.056;2023-03-12T14:08:32;100463.91;;;14.43;16.60
58769;BME280;44536;47.474;19.056;2023-03-12T14:18:16;100462.38;;;12.13;18.92
58769;BME280;44536;47.474;19.056;2023-03-12T14:21:20;100472.66;;;11.28;18.84
58769;BME280;44536;47.474;19.056;2023-03-12T14:24:32;100473.16;;;11.33;18.01
58769;BME280;44536;47.474;19.056;2023-03-12T14:27:35;100481.03;;;10.41;18.81
58769;BME280;44536;47.474;19.056;2023-03-12T14:30:54;100482.09;;;10.86;20.51
58769;BME280;44536;47.474;19.056;2023-03-12T14:34:06;100474.13;;;10.86;20.75
58769;BME280;44536;47.474;19.056;2023-03-12T14:37:15;100482.34;;;10.59;19.20
58769;BME280;44536;47.474;19.056;2023-03-12T14:40:22;100479.62;;;10.72;18.98
58769;BME280;44536;47.474;19.056;2023-03-12T14:43:28;100473.75;;;10.55;20.30
58769;BME280;44536;47.474;19.056;2023-03-12T14:46:30;100473.97;;;9.92;20.87
58769;BME280;44536;47.474;19.056;2023-03-12T14:49:39;100474.87;;;9.80;20.32
58769;BME280;44536;47.474;19.056;2023-03-12T14:52:42;100467.97;;;9.77;20.84
58769;BME280;44536;47.474;19.056;2023-03-12T14:55:44;100470.44;;;9.68;21.35
58769;BME280;44536;47.474;19.056;2023-03-12T14:58:49;100476.63;;;9.92;22.36
58769;BME280;44536;47.474;19.056;2023-03-12T15:01:51;100473.09;;;9.68;22.75
58769;BME280;44536;47.474;19.056;2023-03-12T15:05:00;100471.00;;;9.96;23.24
58769;BME280;44536;47.474;19.056;2023-03-12T15:08:03;100474.44;;;10.22;23.15
58769;BME280;44536;47.474;19.056;2023-03-12T15:11:07;100473.19;;;10.03;22.82
58769;BME280;44536;47.474;19.056;2023-03-12T15:14:14;100474.50;;;9.35;23.46
58769;BME280;44536;47.474;19.056;2023-03-12T15:17:18;100481.13;;;9.41;24.03
58769;BME280;44536;47.474;19.056;2023-03-12T15:20:22;100492.03;;;9.11;24.43
58769;BME280;44536;47.474;19.056;2023-03-12T15:23:28;100487.19;;;8.65;23.91
58769;BME280;44536;47.474;19.056;2023-03-12T15:26:32;100486.09;;;8.55;24.73
58769;BME280;44536;47.474;19.056;2023-03-12T15:29:39;100490.19;;;8.32;24.45
58769;BME280;44536;47.474;19.056;2023-03-12T15:42:28;100510.00;;;7.98;26.50
58769;BME280;44536;47.474;19.056;2023-03-12T15:45:37;100504.81;;;7.82;26.42
58769;BME280;44536;47.474;19.056;2023-03-12T15:48:46;100510.34;;;7.79;26.90
58769;BME280;44536;47.474;19.056;2023-03-12T15:55:23;100515.50;;;7.52;24.97
58769;BME280;44536;47.474;19.056;2023-03-12T15:58:30;100521.97;;;7.32;23.69
58769;BME280;44536;47.474;19.056;2023-03-12T16:01:45;100525.47;;;7.19;24.65
58769;BME280;44536;47.474;19.056;2023-03-12T16:04:48;100524.87;;;7.14;24.99
58769;BME280;44536;47.474;19.056;2023-03-12T16:07:50;100530.47;;;6.93;24.93
58769;BME280;44536;47.474;19.056;2023-03-12T16:10:54;100529.13;;;6.86;26.70
58769;BME280;44536;47.474;19.056;2023-03-12T16:14:03;100525.31;;;6.76;26.14
58769;BME280;44536;47.474;19.056;2023-03-12T16:17:12;100532.25;;;6.63;26.17
58769;BME280;44536;47.474;19.056;2023-03-12T16:20:15;100523.84;;;6.56;26.02
58769;BME280;44536;47.474;19.056;2023-03-12T16:23:19;100528.44;;;6.53;25.71
58769;BME280;44536;47.474;19.056;2023-03-12T16:26:21;100539.81;;;6.38;27.00
58769;BME280;44536;47.474;19.056;2023-03-12T16:29:31;100540.25;;;6.30;26.67
58769;BME280;44536;47.474;19.056;2023-03-12T16:32:34;100541.03;;;6.16;27.87
58769;BME280;44536;47.474;19.056;2023-03-12T16:35:36;100534.50;;;6.08;28.67
58769;BME280;44536;47.474;19.056;2023-03-12T16:38:39;100544.34;;;6.04;28.70
58769;BME280;44536;47.474;19.056;2023-03-12T16:41:41;100548.59;;;6.07;28.33
58769;BME280;44536;47.474;19.056;2023-03-12T16:44:44;100547.84;;;5.87;29.54
58769;BME280;44536;47.474;19.056;2023-03-12T16:47:53;100553.06;;;5.89;29.72
58769;BME280;44536;47.474;19.056;2023-03-12T16:50:56;100556.75;;;5.85;28.66
58769;BME280;44536;47.474;19.056;2023-03-12T16:54:00;100554.44;;;5.79;29.64
58769;BME280;44536;47.474;19.056;2023-03-12T17:00:23;100569.28;;;5.47;30.34
58769;BME280;44536;47.474;19.056;2023-03-12T17:03:33;100569.69;;;5.39;31.82
58769;BME280;44536;47.474;19.056;2023-03-12T17:06:39;100573.25;;;5.38;31.05
58769;BME280;44536;47.474;19.056;2023-03-12T17:09:42;100582.44;;;5.29;31.29
58769;BME280;44536;47.474;19.056;2023-03-12T17:12:46;100581.97;;;5.39;30.41
58769;BME280;44536;47.474;19.056;2023-03-12T17:15:49;100592.25;;;5.26;32.33
58769;BME280;44536;47.474;19.056;2023-03-12T17:18:52;100592.41;;;5.23;32.21
58769;BME280;44536;47.474;19.056;2023-03-12T17:21:55;100599.09;;;5.13;31.61
58769;BME280;44536;47.474;19.056;2023-03-12T17:24:57;100591.66;;;5.04;32.65
58769;BME280;44536;47.474;19.056;2023-03-12T17:28:00;100590.81;;;5.03;32.25
58769;BME280;44536;47.474;19.056;2023-03-12T17:31:03;100588.09;;;5.05;33.61
58769;BME280;44536;47.474;19.056;2023-03-12T17:34:05;100596.44;;;4.95;33.92
58769;BME280;44536;47.474;19.056;2023-03-12T17:37:08;100588.28;;;4.83;32.51
58769;BME280;44536;47.474;19.056;2023-03-12T17:40:11;100597.72;;;4.87;32.99
58769;BME280;44536;47.474;19.056;2023-03-12T17:43:13;100587.50;;;4.81;35.19
58769;BME280;44536;47.474;19.056;2023-03-12T17:46:15;100590.50;;;4.73;35.94
58769;BME280;44536;47.474;19.056;2023-03-12T17:49:19;100593.75;;;4.61;33.82
58769;BME280;44536;47.474;19.056;2023-03-12T17:52:21;100596.31;;;4.62;33.83
58769;BME280;44536;47.474;19.056;2023-03-12T17:55:24;100592.13;;;4.58;34.77
58769;BME280;44536;47.474;19.056;2023-03-12T17:58:26;100589.56;;;4.57;34.69